Time;durP1;ratioP1;P1;durP2;ratioP2;P2;SDS_P1;SDS_P2;PMS_P1;PMS_P2;Temp;Humidity;BMP_temperature;BMP_pressure;BME280_temperature;BME280_humidity;BME280_pressure;Samples;Min_cycle;Max_cycle;Signal;HPM_P1;HPM_P2
2023/06/21 00:02:23;;;;;;;9.68;7.07;;;;;;;-140.66;100.00;55571.53;5136556;27;20031;-73
2023/06/21 00:05:10;;;;;;;7.65;6.85;;;;;;;-140.66;100.00;55571.53;5135433;27;20027;-73
2023/06/21 00:07:56;;;;;;;8.98;6.90;;;;;;;-140.66;100.00;55571.53;5135739;27;20088;-74
2023/06/21 00:10:44;;;;;;;8.50;6.53;;;;;;;-140.66;100.00;55571.53;5135538;27;20031;-74
2023/06/21 00:13:29;;;;;;;10.00;7.13;;;;;;;-140.66;100.00;55571.53;5136471;27;20069;-74
2023/06/21 00:16:15;;;;;;;7.97;6.25;;;;;;;-140.66;100.00;55571.53;5135475;27;20118;-75
2023/06/21 00:19:01;;;;;;;7.88;7.00;;;;;;;-140.66;100.00;55571.53;5134944;27;20552;-75
2023/06/21 00:21:47;;;;;;;8.82;7.25;;;;;;;-140.66;100.00;55571.53;5126727;27;20328;-75
2023/06/21 00:24:32;;;;;;;9.55;7.03;;;;;;;-140.66;100.00;55571.53;5135179;27;20429;-75
2023/06/21 00:27:18;;;;;;;10.10;7.45;;;;;;;-140.66;100.00;55571.53;5135034;27;20027;-75
2023/06/21 00:30:05;;;;;;;8.98;6.78;;;;;;;-140.66;100.00;55571.53;5112850;27;20065;-75
2023/06/21 00:32:51;;;;;;;10.43;7.13;;;;;;;-140.66;100.00;55571.53;5134922;27;20027;-75
2023/06/21 00:35:36;;;;;;;9.45;7.07;;;;;;;-140.66;100.00;55571.53;5119111;27;20471;-75
2023/06/21 00:38:22;;;;;;;8.65;6.75;;;;;;;-140.66;100.00;55571.53;5119639;27;20034;-74
2023/06/21 00:41:08;;;;;;;7.88;6.60;;;;;;;-140.66;100.00;55571.53;5135271;27;20027;-75
2023/06/21 00:43:54;;;;;;;8.90;7.43;;;;;;;-140.66;100.00;55571.53;5133835;27;20030;-74
2023/06/21 00:46:40;;;;;;;7.20;6.50;;;;;;;-140.66;100.00;55571.53;5134838;27;20018;-75
2023/06/21 00:49:27;;;;;;;7.63;6.82;;;;;;;-140.66;100.00;55571.53;5119098;27;20055;-75
2023/06/21 00:52:13;;;;;;;8.00;6.65;;;;;;;-140.66;100.00;55571.53;5120683;27;20064;-76
2023/06/21 00:54:59;;;;;;;7.53;6.72;;;;;;;-140.66;100.00;55571.53;5133701;27;20043;-76
2023/06/21 00:57:45;;;;;;;8.55;6.78;;;;;;;-140.66;100.00;55571.53;5119956;27;20365;-76
2023/06/21 01:00:30;;;;;;;9.02;7.05;;;;;;;-140.66;100.00;55571.53;5134323;27;20035;-75
2023/06/21 01:03:21;;;;;;;7.90;7.10;;;;;;;-140.66;100.00;55571.53;5134308;27;20026;-75
2023/06/21 01:06:22;;;;;;;12.05;7.93;;;;;;;-140.66;100.00;55571.53;5134527;27;20096;-75
2023/06/21 01:09:36;;;;;;;10.18;6.80;;;;;;;-140.66;100.00;55571.53;5113594;27;20415;-75
2023/06/21 01:12:36;;;;;;;12.18;7.72;;;;;;;-140.66;100.00;55571.53;5134417;27;20098;-75
2023/06/21 01:15:26;;;;;;;9.60;6.75;;;;;;;-140.66;100.00;55571.53;5119076;28;20087;-75
2023/06/21 01:18:17;;;;;;;10.57;6.88;;;;;;;-140.66;100.00;55571.53;5132899;28;20023;-75
2023/06/21 01:21:05;;;;;;;9.63;6.63;;;;;;;-140.66;100.00;55571.53;5134401;28;20035;-75
2023/06/21 01:24:18;;;;;;;9.05;6.75;;;;;;;-140.66;100.00;55571.53;5134310;28;20026;-75
2023/06/21 01:27:43;;;;;;;8.10;7.07;;;;;;;-140.66;100.00;55571.53;5119179;28;20437;-75
2023/06/21 01:30:31;;;;;;;10.30;6.70;;;;;;;-140.66;100.00;55571.53;5104785;28;20448;-74
2023/06/21 01:33:17;;;;;;;8.90;6.70;;;;;;;-140.66;100.00;55571.53;5133681;28;20114;-76
2023/06/21 01:36:04;;;;;;;11.50;7.53;;;;;;;-140.66;100.00;55571.53;5134224;28;20027;-76
2023/06/21 01:38:56;;;;;;;12.63;10.18;;;;;;;-140.66;100.00;55571.53;5133653;28;20035;-75
2023/06/21 01:41:41;;;;;;;11.35;10.18;;;;;;;-140.66;100.00;55571.53;5134248;28;20182;-75
2023/06/21 01:44:28;;;;;;;14.00;11.10;;;;;;;-140.66;100.00;55571.53;5134210;28;20034;-75
2023/06/21 01:47:14;;;;;;;11.10;9.63;;;;;;;-140.66;100.00;55571.53;5134000;28;20027;-75
2023/06/21 01:50:02;;;;;;;10.95;9.40;;;;;;;-140.66;100.00;55571.53;5119018;27;20034;-75
2023/06/21 01:52:49;;;;;;;13.15;9.95;;;;;;;-140.66;100.00;55571.53;5138623;27;20045;-75
2023/06/21 01:55:36;;;;;;;13.82;11.07;;;;;;;-140.66;100.00;55571.53;5138106;27;20031;-75
2023/06/21 01:58:22;;;;;;;13.07;9.35;;;;;;;-140.66;100.00;55571.53;5137826;27;20027;-76
2023/06/21 02:01:11;;;;;;;11.50;8.15;;;;;;;-140.66;100.00;55571.53;5137540;27;20095;-75
2023/06/21 02:04:00;;;;;;;9.32;8.13;;;;;;;-140.66;100.00;55571.53;5137844;27;20027;-76
2023/06/21 02:06:48;;;;;;;14.10;7.50;;;;;;;-140.66;100.00;55571.53;5138389;27;20103;-76
2023/06/21 02:09:34;;;;;;;9.45;7.63;;;;;;;-140.66;100.00;55571.53;5137811;27;20027;-75
2023/06/21 02:12:20;;;;;;;11.23;7.72;;;;;;;-140.66;100.00;55571.53;5137546;27;20027;-75
2023/06/21 02:15:06;;;;;;;9.27;7.45;;;;;;;-140.66;100.00;55571.53;5137786;27;20027;-74
2023/06/21 02:17:52;;;;;;;11.93;8.57;;;;;;;-140.66;100.00;55571.53;5137067;27;20027;-76
2023/06/21 02:20:38;;;;;;;8.77;7.47;;;;;;;-140.66;100.00;55571.53;5136949;27;20097;-76
2023/06/21 02:23:24;;;;;;;11.82;7.53;;;;;;;-140.66;100.00;55571.53;5138120;27;20349;-76
2023/06/21 02:26:10;;;;;;;8.25;7.18;;;;;;;-140.66;100.00;55571.53;5137089;27;20092;-75
2023/06/21 02:28:56;;;;;;;10.32;7.47;;;;;;;-140.66;100.00;55571.53;5137459;27;20027;-75
2023/06/21 02:31:41;;;;;;;24.65;10.00;;;;;;;-140.66;100.00;55571.53;5137747;27;20033;-74
2023/06/21 02:34:28;;;;;;;42.45;12.98;;;;;;;-140.66;100.00;55571.53;5121502;27;20023;-75
2023/06/21 02:37:14;;;;;;;15.57;9.25;;;;;;;-140.66;100.00;55571.53;5137689;27;20023;-75
2023/06/21 02:40:05;;;;;;;11.73;7.75;;;;;;;-140.66;100.00;55571.53;5121969;27;20038;-75
2023/06/21 02:42:52;;;;;;;19.02;8.15;;;;;;;-140.66;100.00;55571.53;5137694;27;20164;-75
2023/06/21 02:45:38;;;;;;;9.90;8.32;;;;;;;-140.66;100.00;55571.53;5122112;27;20060;-75
2023/06/21 02:48:23;;;;;;;11.82;7.93;;;;;;;-140.66;100.00;55571.53;5121612;27;20019;-76
2023/06/21 02:51:09;;;;;;;11.73;8.35;;;;;;;-140.66;100.00;55571.53;5136789;27;20015;-76
2023/06/21 02:53:55;;;;;;;12.07;7.80;;;;;;;-140.66;100.00;55571.53;5113057;27;20466;-75
2023/06/21 02:56:42;;;;;;;12.98;7.57;;;;;;;-140.66;100.00;55571.53;5121808;27;20051;-75
2023/06/21 02:59:28;;;;;;;10.73;8.57;;;;;;;-140.66;100.00;55571.53;5137215;27;20441;-75
2023/06/21 03:02:16;;;;;;;17.27;8.43;;;;;;;-140.66;100.00;55571.53;5136412;27;20478;-75
2023/06/21 03:05:02;;;;;;;12.25;8.32;;;;;;;-140.66;100.00;55571.53;5136464;27;20023;-76
2023/06/21 03:07:48;;;;;;;14.68;8.10;;;;;;;-140.66;100.00;55571.53;5136022;27;20030;-76
2023/06/21 03:10:34;;;;;;;11.90;8.93;;;;;;;-140.66;100.00;55571.53;5136350;27;20468;-75
2023/06/21 03:13:19;;;;;;;13.00;9.57;;;;;;;-140.66;100.00;55571.53;5121678;27;20029;-76
2023/06/21 03:16:06;;;;;;;16.00;9.00;;;;;;;-140.66;100.00;55571.53;5136900;27;20054;-75
2023/06/21 03:18:52;;;;;;;12.00;8.63;;;;;;;-140.66;100.00;55571.53;5121393;27;20381;-76
2023/06/21 03:21:37;;;;;;;10.90;8.98;;;;;;;-140.66;100.00;55571.53;5121503;27;20105;-75
2023/06/21 03:24:23;;;;;;;13.20;8.25;;;;;;;-140.66;100.00;55571.53;5135893;27;20446;-75
2023/06/21 03:27:09;;;;;;;16.20;8.70;;;;;;;-140.66;100.00;55571.53;5136104;27;20049;-75
2023/06/21 03:29:55;;;;;;;14.70;9.25;;;;;;;-140.66;100.00;55571.53;5135631;27;20023;-75
2023/06/21 03:32:46;;;;;;;12.68;8.77;;;;;;;-140.66;100.00;55571.53;5121545;27;20087;-74
2023/06/21 03:35:32;;;;;;;15.95;9.10;;;;;;;-140.66;100.00;55571.53;5136099;27;20096;-75
2023/06/21 03:38:18;;;;;;;11.98;9.00;;;;;;;-140.66;100.00;55571.53;5136328;27;20390;-75
2023/06/21 03:41:04;;;;;;;11.35;8.95;;;;;;;-140.66;100.00;55571.53;5135691;27;20047;-75
2023/06/21 03:43:50;;;;;;;14.30;8.63;;;;;;;-140.66;100.00;55571.53;5135212;27;20035;-75
2023/06/21 03:46:36;;;;;;;10.50;8.07;;;;;;;-140.66;100.00;55571.53;5121944;27;20034;-74
2023/06/21 03:49:22;;;;;;;11.60;8.40;;;;;;;-140.66;100.00;55571.53;5135929;27;20038;-75
2023/06/21 03:52:07;;;;;;;13.10;9.10;;;;;;;-140.66;100.00;55571.53;5135487;27;20030;-75
2023/06/21 03:54:53;;;;;;;10.93;8.43;;;;;;;-140.66;100.00;55571.53;5135340;27;20038;-76
2023/06/21 03:57:39;;;;;;;12.65;8.43;;;;;;;-140.66;100.00;55571.53;5120561;27;20027;-76
2023/06/21 04:00:25;;;;;;;12.05;9.13;;;;;;;-140.66;100.00;55571.53;5134611;27;20448;-76
2023/06/21 04:03:11;;;;;;;10.50;9.07;;;;;;;-140.66;100.00;55571.53;5135724;27;20034;-75
2023/06/21 04:05:56;;;;;;;12.73;9.13;;;;;;;-140.66;100.00;55571.53;5120782;27;20035;-76
2023/06/21 04:08:42;;;;;;;13.23;8.50;;;;;;;-140.66;100.00;55571.53;5135603;27;20020;-77
2023/06/21 04:11:28;;;;;;;13.65;8.52;;;;;;;-140.66;100.00;55571.53;5134699;27;20038;-75
2023/06/21 04:14:15;;;;;;;12.20;7.88;;;;;;;-140.66;100.00;55571.53;5134308;27;20023;-75
2023/06/21 04:17:00;;;;;;;13.77;8.32;;;;;;;-140.66;100.00;55571.53;5120103;27;20410;-76
2023/06/21 04:19:46;;;;;;;11.07;8.10;;;;;;;-140.66;100.00;55571.53;5135798;27;20365;-76
2023/06/21 04:22:32;;;;;;;11.60;8.25;;;;;;;-140.66;100.00;55571.53;5133839;27;20054;-74
2023/06/21 04:25:18;;;;;;;13.10;8.40;;;;;;;-140.66;100.00;55571.53;5135573;27;20023;-76
2023/06/21 04:28:04;;;;;;;14.80;8.88;;;;;;;-140.66;100.00;55571.53;5134944;27;20023;-74
2023/06/21 04:30:50;;;;;;;18.40;9.13;;;;;;;-140.66;100.00;55571.53;5135553;27;20184;-76
2023/06/21 04:33:36;;;;;;;14.93;9.30;;;;;;;-140.66;100.00;55571.53;5119713;27;20027;-76
2023/06/21 04:36:22;;;;;;;12.93;8.68;;;;;;;-140.66;100.00;55571.53;5135349;27;20103;-75
2023/06/21 04:39:07;;;;;;;17.52;8.95;;;;;;;-140.66;100.00;55571.53;5135067;27;20038;-75
2023/06/21 04:41:54;;;;;;;13.05;8.40;;;;;;;-140.66;100.00;55571.53;5119428;27;20031;-76
2023/06/21 04:44:39;;;;;;;13.88;8.13;;;;;;;-140.66;100.00;55571.53;5134863;27;20045;-76
2023/06/21 04:47:25;;;;;;;20.15;8.98;;;;;;;-140.66;100.00;55571.53;5137206;27;20027;-75
2023/06/21 04:50:11;;;;;;;15.93;8.70;;;;;;;-140.66;100.00;55571.53;5119001;27;20163;-76
2023/06/21 04:52:59;;;;;;;20.35;9.35;;;;;;;-140.66;100.00;55571.53;5119250;27;20364;-76
2023/06/21 04:55:45;;;;;;;13.82;8.82;;;;;;;-140.66;100.00;55571.53;5119258;27;20061;-77
2023/06/21 04:58:35;;;;;;;14.98;8.93;;;;;;;-140.66;100.00;55571.53;5133827;27;20034;-76
2023/06/21 05:01:21;;;;;;;14.95;8.32;;;;;;;-140.66;100.00;55571.53;5118648;27;20046;-76
2023/06/21 05:04:07;;;;;;;12.50;7.93;;;;;;;-140.66;100.00;55571.53;5134179;27;20023;-76
2023/06/21 05:06:52;;;;;;;11.52;7.85;;;;;;;-140.66;100.00;55571.53;5134111;27;20449;-76
2023/06/21 05:09:38;;;;;;;12.85;8.27;;;;;;;-140.66;100.00;55571.53;5134197;27;20108;-76
2023/06/21 05:12:24;;;;;;;13.95;9.05;;;;;;;-140.66;100.00;55571.53;5133380;27;20038;-75
2023/06/21 05:15:10;;;;;;;11.63;8.63;;;;;;;-140.66;100.00;55571.53;5133971;27;20456;-76
2023/06/21 05:17:55;;;;;;;12.02;8.77;;;;;;;-140.66;100.00;55571.53;5135397;27;20149;-77
2023/06/21 05:20:41;;;;;;;13.40;8.90;;;;;;;-140.66;100.00;55571.53;5134022;28;20122;-77
2023/06/21 05:23:27;;;;;;;12.77;8.77;;;;;;;-140.66;100.00;55571.53;5135754;27;20360;-76
2023/06/21 05:26:12;;;;;;;15.13;8.55;;;;;;;-140.66;100.00;55571.53;5141612;27;20019;-77
2023/06/21 05:28:58;;;;;;;13.68;8.85;;;;;;;-140.66;100.00;55571.53;5125894;27;20058;-77
2023/06/21 05:31:44;;;;;;;13.30;8.63;;;;;;;-140.66;100.00;55571.53;5141229;27;20019;-77
2023/06/21 05:34:31;;;;;;;16.17;9.05;;;;;;;-140.66;100.00;55571.53;5140619;27;20096;-78
2023/06/21 05:37:16;;;;;;;13.25;8.18;;;;;;;-140.66;100.00;55571.53;5141051;27;20059;-76
2023/06/21 05:40:06;;;;;;;14.60;7.97;;;;;;;-140.66;100.00;55571.53;5141856;27;20031;-77
2023/06/21 05:42:52;;;;;;;18.05;8.63;;;;;;;-140.66;100.00;55571.53;5141201;27;20046;-77
2023/06/21 05:45:38;;;;;;;14.23;8.63;;;;;;;-140.66;100.00;55571.53;5141450;27;20019;-76
2023/06/21 05:48:24;;;;;;;14.02;9.02;;;;;;;-140.66;100.00;55571.53;5141145;27;20027;-76
2023/06/21 05:51:10;;;;;;;14.07;8.93;;;;;;;-140.66;100.00;55571.53;5140134;27;20018;-76
2023/06/21 05:53:56;;;;;;;16.23;8.82;;;;;;;-140.66;100.00;55571.53;5141018;27;20023;-75
2023/06/21 05:56:42;;;;;;;10.63;8.77;;;;;;;-140.66;100.00;55571.53;5140597;27;20357;-76
2023/06/21 05:59:27;;;;;;;13.45;8.60;;;;;;;-140.66;100.00;55571.53;5126174;27;20039;-77
2023/06/21 06:02:13;;;;;;;13.63;8.68;;;;;;;-140.66;100.00;55571.53;5140633;27;20357;-75
2023/06/21 06:04:59;;;;;;;12.90;8.77;;;;;;;-140.66;100.00;55571.53;5125823;27;20060;-76
2023/06/21 06:07:44;;;;;;;13.02;8.50;;;;;;;-140.66;100.00;55571.53;5140214;27;20019;-76
2023/06/21 06:10:30;;;;;;;12.05;8.25;;;;;;;-140.66;100.00;55571.53;5124528;27;20445;-75
2023/06/21 06:13:16;;;;;;;11.77;8.15;;;;;;;-140.66;100.00;55571.53;5141857;27;20109;-77
2023/06/21 06:16:02;;;;;;;10.40;7.80;;;;;;;-140.66;100.00;55571.53;5125308;27;20057;-76
2023/06/21 06:18:48;;;;;;;10.57;7.90;;;;;;;-140.66;100.00;55571.53;5140732;27;20161;-76
2023/06/21 06:21:33;;;;;;;12.07;8.02;;;;;;;-140.66;100.00;55571.53;5140285;27;20019;-76
2023/06/21 06:24:19;;;;;;;10.32;7.93;;;;;;;-140.66;100.00;55571.53;5124958;27;20405;-76
2023/06/21 06:27:06;;;;;;;10.38;7.90;;;;;;;-140.66;100.00;55571.53;5139723;27;20047;-77
2023/06/21 06:29:51;;;;;;;8.85;7.32;;;;;;;-140.66;100.00;55571.53;5124957;27;20058;-77
2023/06/21 06:32:37;;;;;;;9.10;7.63;;;;;;;-140.66;100.00;55571.53;5140401;27;20023;-75
2023/06/21 06:35:23;;;;;;;8.48;7.18;;;;;;;-140.66;100.00;55571.53;5138751;27;20019;-75
2023/06/21 06:38:09;;;;;;;9.07;7.03;;;;;;;-140.66;100.00;55571.53;5136446;27;20026;-74
2023/06/21 06:40:54;;;;;;;12.25;7.43;;;;;;;-140.66;100.00;55571.53;5136207;27;20027;-75
2023/06/21 06:43:40;;;;;;;11.80;7.45;;;;;;;-140.66;100.00;55571.53;5136643;27;20015;-77
2023/06/21 06:46:26;;;;;;;8.05;6.97;;;;;;;-140.66;100.00;55571.53;5122315;27;20023;-76
2023/06/21 06:49:12;;;;;;;11.80;7.45;;;;;;;-140.66;100.00;55571.53;5136697;27;20425;-77
2023/06/21 06:51:58;;;;;;;8.40;7.10;;;;;;;-140.66;100.00;55571.53;5121618;27;20106;-75
2023/06/21 06:54:44;;;;;;;9.73;7.68;;;;;;;-140.66;100.00;55571.53;5136646;27;20100;-74
2023/06/21 06:57:29;;;;;;;8.55;7.00;;;;;;;-140.66;100.00;55571.53;5136614;27;20029;-76
2023/06/21 07:00:17;;;;;;;15.40;12.65;;;;;;;-140.66;100.00;55571.53;5121716;27;20083;-75
2023/06/21 07:03:02;;;;;;;8.20;6.88;;;;;;;-140.66;100.00;55571.53;5136146;27;20038;-76
2023/06/21 07:05:48;;;;;;;8.45;7.32;;;;;;;-140.66;100.00;55571.53;5137094;27;20433;-77
2023/06/21 07:08:34;;;;;;;9.55;8.00;;;;;;;-140.66;100.00;55571.53;5137064;27;20364;-74
2023/06/21 07:11:20;;;;;;;10.18;7.85;;;;;;;-140.66;100.00;55571.53;5121279;27;20019;-75
2023/06/21 07:14:05;;;;;;;18.75;8.80;;;;;;;-140.66;100.00;55571.53;5136316;27;20023;-76
2023/06/21 07:16:51;;;;;;;16.35;8.80;;;;;;;-140.66;100.00;55571.53;5137749;27;20106;-78
2023/06/21 07:19:38;;;;;;;10.70;8.60;;;;;;;-140.66;100.00;55571.53;5135897;27;20376;-77
2023/06/21 07:22:24;;;;;;;13.00;8.10;;;;;;;-140.66;100.00;55571.53;5136523;27;20110;-77
2023/06/21 07:25:10;;;;;;;11.95;7.97;;;;;;;-140.66;100.00;55571.53;5136151;27;20056;-76
2023/06/21 07:27:56;;;;;;;14.00;8.77;;;;;;;-140.66;100.00;55571.53;5121499;27;20038;-75
2023/06/21 07:30:42;;;;;;;32.05;9.93;;;;;;;-140.66;100.00;55571.53;5120828;27;20084;-76
2023/06/21 07:33:28;;;;;;;12.32;8.68;;;;;;;-140.66;100.00;55571.53;5136116;27;20155;-78
2023/06/21 07:36:13;;;;;;;11.60;8.35;;;;;;;-140.66;100.00;55571.53;5136089;27;20019;-76
2023/06/21 07:38:59;;;;;;;9.25;8.20;;;;;;;-140.66;100.00;55571.53;5120174;27;20115;-73
2023/06/21 07:41:45;;;;;;;10.75;7.78;;;;;;;-140.66;100.00;55571.53;5136078;27;20023;-74
2023/06/21 07:44:31;;;;;;;18.77;8.48;;;;;;;-140.66;100.00;55571.53;5136530;27;20052;-72
2023/06/21 07:47:17;;;;;;;14.68;8.45;;;;;;;-140.66;100.00;55571.53;5135114;27;20106;-73
2023/06/21 07:50:04;;;;;;;12.52;9.10;;;;;;;-140.66;100.00;55571.53;5136223;27;20026;-75
2023/06/21 07:52:50;;;;;;;15.25;7.97;;;;;;;-140.66;100.00;55571.53;5120780;27;20412;-75
2023/06/21 07:55:36;;;;;;;11.10;8.20;;;;;;;-140.66;100.00;55571.53;5135274;27;20062;-76
2023/06/21 07:58:21;;;;;;;9.27;8.07;;;;;;;-140.66;100.00;55571.53;5135802;27;20101;-75
2023/06/21 08:01:08;;;;;;;10.25;8.27;;;;;;;-140.66;100.00;55571.53;5135185;27;20086;-75
2023/06/21 08:03:54;;;;;;;12.20;7.90;;;;;;;-140.66;100.00;55571.53;5104032;27;20447;-75
2023/06/21 08:06:39;;;;;;;10.30;7.82;;;;;;;-140.66;100.00;55571.53;5135770;27;20023;-75
2023/06/21 08:09:25;;;;;;;15.43;8.15;;;;;;;-140.66;100.00;55571.53;5135491;27;20015;-74
2023/06/21 08:12:13;;;;;;;11.88;7.57;;;;;;;-140.66;100.00;55571.53;5135808;27;20514;-75
2023/06/21 08:14:58;;;;;;;16.08;8.38;;;;;;;-140.66;100.00;55571.53;5120279;27;20027;-75
2023/06/21 08:17:44;;;;;;;10.38;8.13;;;;;;;-140.66;100.00;55571.53;5135525;27;20465;-75
2023/06/21 08:20:30;;;;;;;14.63;8.52;;;;;;;-140.66;100.00;55571.53;5135201;27;20425;-74
2023/06/21 08:23:16;;;;;;;10.13;7.78;;;;;;;-140.66;100.00;55571.53;5119862;27;20040;-75
2023/06/21 08:26:02;;;;;;;9.65;8.07;;;;;;;-140.66;100.00;55571.53;5134941;27;20322;-75
2023/06/21 08:28:47;;;;;;;13.63;8.98;;;;;;;-140.66;100.00;55571.53;5126598;27;20027;-76
2023/06/21 08:31:33;;;;;;;19.50;8.90;;;;;;;-140.66;100.00;55571.53;5120323;27;20106;-70
2023/06/21 08:34:19;;;;;;;10.88;7.65;;;;;;;-140.66;100.00;55571.53;5135288;27;20027;-76
2023/06/21 08:37:05;;;;;;;13.20;8.48;;;;;;;-140.66;100.00;55571.53;5135327;27;20143;-76
2023/06/21 08:39:55;;;;;;;11.07;8.52;;;;;;;-140.66;100.00;55571.53;5118969;27;20023;-75
2023/06/21 08:42:41;;;;;;;15.25;8.00;;;;;;;-140.66;100.00;55571.53;5134637;27;20027;-75
2023/06/21 08:45:26;;;;;;;11.73;7.57;;;;;;;-140.66;100.00;55571.53;5134766;27;20372;-76
2023/06/21 08:48:13;;;;;;;10.73;7.85;;;;;;;-140.66;100.00;55571.53;5119588;27;20027;-76
2023/06/21 08:51:03;;;;;;;9.30;7.28;;;;;;;-140.66;100.00;55571.53;5134948;27;20110;-76
2023/06/21 08:53:56;;;;;;;13.13;7.70;;;;;;;-140.66;100.00;55571.53;5120017;27;20027;-76
2023/06/21 08:56:46;;;;;;;8.88;7.30;;;;;;;-140.66;100.00;55571.53;5134294;27;20034;-76
2023/06/21 08:59:56;;;;;;;8.32;7.00;;;;;;;-140.66;100.00;55571.53;5133633;27;20455;-77
2023/06/21 09:02:52;;;;;;;11.38;6.63;;;;;;;-140.66;100.00;55571.53;5134673;27;20033;-76
2023/06/21 09:05:55;;;;;;;7.55;6.75;;;;;;;-140.66;100.00;55571.53;5134455;27;20027;-76
2023/06/21 09:08:41;;;;;;;8.40;7.00;;;;;;;-140.66;100.00;55571.53;5119096;27;20037;-76
2023/06/21 09:11:27;;;;;;;16.80;7.20;;;;;;;-140.66;100.00;55571.53;5134319;27;20053;-76
2023/06/21 09:14:14;;;;;;;10.32;6.65;;;;;;;-140.66;100.00;55571.53;5134290;27;20057;-76
2023/06/21 09:17:00;;;;;;;10.80;6.90;;;;;;;-140.66;100.00;55571.53;5134439;27;20031;-76
2023/06/21 09:19:46;;;;;;;7.00;6.30;;;;;;;-140.66;100.00;55571.53;5134068;27;20061;-77
2023/06/21 09:22:32;;;;;;;8.38;7.28;;;;;;;-140.66;100.00;55571.53;5134278;28;20027;-77
2023/06/21 09:25:18;;;;;;;8.18;7.25;;;;;;;-140.66;100.00;55571.53;5134415;28;20027;-77
2023/06/21 09:28:04;;;;;;;7.57;6.88;;;;;;;-140.66;100.00;55571.53;5133548;28;20027;-77
2023/06/21 09:30:50;;;;;;;9.77;7.47;;;;;;;-140.66;100.00;55571.53;5134181;28;20395;-77
2023/06/21 09:33:36;;;;;;;11.90;7.35;;;;;;;-140.66;100.00;55571.53;5133264;28;20023;-75
2023/06/21 09:36:23;;;;;;;11.05;7.15;;;;;;;-140.66;100.00;55571.53;5119429;28;20364;-76
2023/06/21 09:39:11;;;;;;;12.02;7.32;;;;;;;-140.66;100.00;55571.53;5133852;28;20027;-75
2023/06/21 09:41:57;;;;;;;7.95;7.10;;;;;;;-140.66;100.00;55571.53;5119624;28;20110;-76
2023/06/21 09:44:45;;;;;;;7.43;6.55;;;;;;;-140.66;100.00;55571.53;5133132;28;20119;-76
2023/06/21 09:47:31;;;;;;;7.50;6.70;;;;;;;-140.66;100.00;55571.53;5119007;28;20108;-75
2023/06/21 09:50:17;;;;;;;8.90;6.43;;;;;;;-140.66;100.00;55571.53;5118910;28;20027;-75
2023/06/21 09:53:02;;;;;;;11.63;6.90;;;;;;;-140.66;100.00;55571.53;5118293;28;20055;-76
2023/06/21 09:55:48;;;;;;;14.20;7.10;;;;;;;-140.66;100.00;55571.53;5119021;28;20026;-74
2023/06/21 09:58:34;;;;;;;7.80;6.50;;;;;;;-140.66;100.00;55571.53;5118398;28;20084;-76
2023/06/21 10:01:20;;;;;;;8.02;6.63;;;;;;;-140.66;100.00;55571.53;5133580;28;20035;-75
2023/06/21 10:04:14;;;;;;;7.20;6.50;;;;;;;-140.66;100.00;55571.53;5119503;28;20081;-74
2023/06/21 10:07:02;;;;;;;7.82;6.85;;;;;;;-140.66;100.00;55571.53;5134550;28;20038;-76
2023/06/21 10:09:48;;;;;;;10.60;6.80;;;;;;;-140.66;100.00;55571.53;5119085;27;20041;-75
2023/06/21 10:12:34;;;;;;;9.95;6.97;;;;;;;-140.66;100.00;55571.53;5137159;27;20019;-76
2023/06/21 10:15:21;;;;;;;8.23;6.60;;;;;;;-140.66;100.00;55571.53;5115566;28;20084;-76
2023/06/21 10:18:09;;;;;;;8.20;6.30;;;;;;;-140.66;100.00;55571.53;5109332;27;20103;-77
2023/06/21 10:21:04;;;;;;;8.43;6.63;;;;;;;-140.66;100.00;55571.53;5137661;27;20058;-77
2023/06/21 10:23:51;;;;;;;8.60;7.07;;;;;;;-140.66;100.00;55571.53;5137813;27;20061;-77
2023/06/21 10:26:37;;;;;;;12.93;6.72;;;;;;;-140.66;100.00;55571.53;5122586;27;20019;-76
2023/06/21 10:29:23;;;;;;;7.68;6.38;;;;;;;-140.66;100.00;55571.53;5144060;27;20064;-80
2023/06/21 10:32:10;;;;;;;9.38;6.60;;;;;;;-140.66;100.00;55571.53;5151076;27;20015;-79
2023/06/21 10:35:03;;;;;;;7.80;6.40;;;;;;;-140.66;100.00;55571.53;5127021;27;20035;-79
2023/06/21 10:38:08;;;;;;;12.63;6.68;;;;;;;-140.66;100.00;55571.53;5141841;27;20064;-82
2023/06/21 10:40:54;;;;;;;8.13;6.80;;;;;;;-140.66;100.00;55571.53;5138539;27;20015;-74
2023/06/21 10:43:41;;;;;;;10.57;6.80;;;;;;;-140.66;100.00;55571.53;5137512;27;20031;-76
2023/06/21 10:46:28;;;;;;;8.98;6.75;;;;;;;-140.66;100.00;55571.53;5121734;27;20394;-74
2023/06/21 10:49:15;;;;;;;7.10;6.40;;;;;;;-140.66;100.00;55571.53;5122616;27;20065;-74
2023/06/21 10:52:02;;;;;;;13.70;6.78;;;;;;;-140.66;100.00;55571.53;5137712;27;20027;-75
2023/06/21 10:54:50;;;;;;;8.32;6.70;;;;;;;-140.66;100.00;55571.53;5136822;27;20027;-74
2023/06/21 10:57:38;;;;;;;7.45;6.43;;;;;;;-140.66;100.00;55571.53;5122089;27;20058;-75
2023/06/21 11:00:28;;;;;;;7.03;6.32;;;;;;;-140.66;100.00;55571.53;5121183;27;20400;-74
2023/06/21 11:03:16;;;;;;;7.90;6.55;;;;;;;-140.66;100.00;55571.53;5137612;27;20432;-74
2023/06/21 11:06:23;;;;;;;10.15;6.53;;;;;;;-140.66;100.00;55571.53;5122927;27;20409;-75
2023/06/21 11:09:16;;;;;;;7.38;5.95;;;;;;;-140.66;100.00;55571.53;5122071;27;20118;-74
2023/06/21 11:12:07;;;;;;;9.65;6.90;;;;;;;-140.66;100.00;55571.53;5137123;27;20031;-74
2023/06/21 11:14:54;;;;;;;16.58;6.53;;;;;;;-140.66;100.00;55571.53;5136615;27;20019;-74
2023/06/21 11:17:40;;;;;;;9.85;6.95;;;;;;;-140.66;100.00;55571.53;5136353;27;20448;-70
2023/06/21 11:20:26;;;;;;;8.85;6.45;;;;;;;-140.66;100.00;55571.53;5121036;27;20092;-70
2023/06/21 11:23:25;;;;;;;9.02;6.40;;;;;;;-140.66;100.00;55571.53;5121771;27;20058;-71
2023/06/21 11:26:15;;;;;;;8.23;7.25;;;;;;;-140.66;100.00;55571.53;5136439;27;20454;-71
2023/06/21 11:29:13;;;;;;;12.93;6.88;;;;;;;-140.66;100.00;55571.53;5136667;27;20030;-71
2023/06/21 11:32:15;;;;;;;10.20;6.70;;;;;;;-140.66;100.00;55571.53;5135605;27;20502;-71
2023/06/21 11:35:08;;;;;;;10.32;6.32;;;;;;;-140.66;100.00;55571.53;5122123;27;20453;-71
2023/06/21 11:37:56;;;;;;;13.73;7.10;;;;;;;-140.66;100.00;55571.53;5121591;27;20444;-71
2023/06/21 11:40:42;;;;;;;10.68;6.70;;;;;;;-140.66;100.00;55571.53;5135773;27;20031;-71
2023/06/21 11:43:28;;;;;;;7.70;6.90;;;;;;;-140.66;100.00;55571.53;5135146;27;20019;-70
2023/06/21 11:46:24;;;;;;;8.57;6.68;;;;;;;-140.66;100.00;55571.53;5120673;27;20038;-71
2023/06/21 11:49:10;;;;;;;9.27;6.88;;;;;;;-140.66;100.00;55571.53;5135736;27;20018;-71
2023/06/21 11:52:04;;;;;;;15.48;6.88;;;;;;;-140.66;100.00;55571.53;5137028;27;20023;-74
2023/06/21 11:54:50;;;;;;;7.63;6.72;;;;;;;-140.66;100.00;55571.53;5121309;27;20027;-76
2023/06/21 11:57:44;;;;;;;11.90;7.28;;;;;;;-140.66;100.00;55571.53;5120623;27;20027;-75
2023/06/21 12:00:31;;;;;;;8.15;7.10;;;;;;;-140.66;100.00;55571.53;5120271;27;20030;-72
2023/06/21 12:03:18;;;;;;;7.72;6.60;;;;;;;-140.66;100.00;55571.53;5121111;27;20479;-72
2023/06/21 12:06:05;;;;;;;9.40;7.10;;;;;;;-140.66;100.00;55571.53;5135744;27;20034;-73
2023/06/21 12:08:56;;;;;;;9.55;7.05;;;;;;;-140.66;100.00;55571.53;5135632;27;20189;-76
2023/06/21 12:11:42;;;;;;;11.60;6.80;;;;;;;-140.66;100.00;55571.53;5136146;27;20041;-77
2023/06/21 12:14:28;;;;;;;8.32;6.55;;;;;;;-140.66;100.00;55571.53;5120747;27;20015;-76
2023/06/21 12:17:20;;;;;;;8.65;6.50;;;;;;;-140.66;100.00;55571.53;5121430;27;20034;-73
2023/06/21 12:20:07;;;;;;;7.80;6.85;;;;;;;-140.66;100.00;55571.53;5119477;27;20196;-73
2023/06/21 12:22:53;;;;;;;10.52;7.00;;;;;;;-140.66;100.00;55571.53;5135506;27;20027;-73
2023/06/21 12:25:46;;;;;;;7.65;6.85;;;;;;;-140.66;100.00;55571.53;5134358;27;20372;-72
2023/06/21 12:28:34;;;;;;;11.60;6.75;;;;;;;-140.66;100.00;55571.53;5135728;27;20419;-72
2023/06/21 12:31:20;;;;;;;14.32;8.25;;;;;;;-140.66;100.00;55571.53;5134954;27;20027;-71
2023/06/21 12:34:06;;;;;;;10.57;7.65;;;;;;;-140.66;100.00;55571.53;5134113;27;20127;-71
2023/06/21 12:36:52;;;;;;;8.10;7.18;;;;;;;-140.66;100.00;55571.53;5135268;27;20031;-72